sensor_id;sensor_type;location;lat;lon;timestamp;temperature;humidity
15596;DHT22;7898;48.658;9.068;2023-07-29T00:01:10;15.70;99.90
15596;DHT22;7898;48.658;9.068;2023-07-29T00:03:37;15.70;99.90
15596;DHT22;7898;48.658;9.068;2023-07-29T00:06:03;15.70;99.90
15596;DHT22;7898;48.658;9.068;2023-07-29T00:08:32;15.70;99.90
15596;DHT22;7898;48.658;9.068;2023-07-29T00:10:59;15.70;99.90
15596;DHT22;7898;48.658;9.068;2023-07-29T00:13:25;15.70;99.90
15596;DHT22;7898;48.658;9.068;2023-07-29T00:15:54;15.70;99.90
15596;DHT22;7898;48.658;9.068;2023-07-29T00:18:21;15.70;99.90
15596;DHT22;7898;48.658;9.068;2023-07-29T00:20:49;15.70;99.90
15596;DHT22;7898;48.658;9.068;2023-07-29T00:23:17;15.70;99.90
15596;DHT22;7898;48.658;9.068;2023-07-29T00:25:46;15.60;99.90
15596;DHT22;7898;48.658;9.068;2023-07-29T00:28:13;15.60;99.90
15596;DHT22;7898;48.658;9.068;2023-07-29T00:30:40;15.60;99.90
15596;DHT22;7898;48.658;9.068;2023-07-29T00:33:07;15.60;99.90
15596;DHT22;7898;48.658;9.068;2023-07-29T00:35:34;15.60;99.90
15596;DHT22;7898;48.658;9.068;2023-07-29T00:38:01;15.60;99.90
15596;DHT22;7898;48.658;9.068;2023-07-29T00:40:29;15.60;99.90
15596;DHT22;7898;48.658;9.068;2023-07-29T00:42:57;15.60;99.90
15596;DHT22;7898;48.658;9.068;2023-07-29T00:45:25;15.60;99.90
15596;DHT22;7898;48.658;9.068;2023-07-29T00:47:52;15.70;99.90
15596;DHT22;7898;48.658;9.068;2023-07-29T00:50:20;15.70;99.90
15596;DHT22;7898;48.658;9.068;2023-07-29T00:52:48;15.70;99.90
15596;DHT22;7898;48.658;9.068;2023-07-29T00:55:15;15.70;99.90
15596;DHT22;7898;48.658;9.068;2023-07-29T00:57:42;15.70;99.90
15596;DHT22;7898;48.658;9.068;2023-07-29T01:00:15;15.70;99.90
15596;DHT22;7898;48.658;9.068;2023-07-29T01:02:42;15.70;99.90
15596;DHT22;7898;48.658;9.068;2023-07-29T01:05:13;15.70;99.90
15596;DHT22;7898;48.658;9.068;2023-07-29T01:07:51;15.70;99.90
15596;DHT22;7898;48.658;9.068;2023-07-29T01:10:30;15.70;99.90
15596;DHT22;7898;48.658;9.068;2023-07-29T01:13:01;15.70;99.90
15596;DHT22;7898;48.658;9.068;2023-07-29T01:15:38;15.70;99.90
15596;DHT22;7898;48.658;9.068;2023-07-29T01:18:09;15.70;99.90
15596;DHT22;7898;48.658;9.068;2023-07-29T01:20:41;15.70;99.90
15596;DHT22;7898;48.658;9.068;2023-07-29T01:23:08;15.70;99.90
15596;DHT22;7898;48.658;9.068;2023-07-29T01:25:36;15.70;99.90
15596;DHT22;7898;48.658;9.068;2023-07-29T01:28:03;15.70;99.90
15596;DHT22;7898;48.658;9.068;2023-07-29T01:30:33;15.70;99.90
15596;DHT22;7898;48.658;9.068;2023-07-29T01:33:09;15.70;99.90
15596;DHT22;7898;48.658;9.068;2023-07-29T01:35:42;15.70;99.90
15596;DHT22;7898;48.658;9.068;2023-07-29T01:38:13;15.70;99.90
15596;DHT22;7898;48.658;9.068;2023-07-29T01:40:42;15.70;99.90
15596;DHT22;7898;48.658;9.068;2023-07-29T01:43:10;15.80;99.90
15596;DHT22;7898;48.658;9.068;2023-07-29T01:45:38;15.80;99.90
15596;DHT22;7898;48.658;9.068;2023-07-29T01:48:05;15.80;99.90
15596;DHT22;7898;48.658;9.068;2023-07-29T01:50:32;15.80;99.90
15596;DHT22;7898;48.658;9.068;2023-07-29T01:52:59;15.80;99.90
15596;DHT22;7898;48.658;9.068;2023-07-29T01:55:26;15.80;99.90
15596;DHT22;7898;48.658;9.068;2023-07-29T01:57:54;15.70;99.90
15596;DHT22;7898;48.658;9.068;2023-07-29T02:00:21;15.70;99.90
15596;DHT22;7898;48.658;9.068;2023-07-29T02:02:48;15.70;99.90
15596;DHT22;7898;48.658;9.068;2023-07-29T02:05:15;15.60;99.90
15596;DHT22;7898;48.658;9.068;2023-07-29T02:07:42;15.60;99.90
15596;DHT22;7898;48.658;9.068;2023-07-29T02:10:09;15.60;99.90
15596;DHT22;7898;48.658;9.068;2023-07-29T02:12:36;15.50;99.90
15596;DHT22;7898;48.658;9.068;2023-07-29T02:15:05;15.50;99.90
15596;DHT22;7898;48.658;9.068;2023-07-29T02:17:32;15.50;99.90
15596;DHT22;7898;48.658;9.068;2023-07-29T02:19:59;15.40;99.90
15596;DHT22;7898;48.658;9.068;2023-07-29T02:22:25;15.40;99.90
15596;DHT22;7898;48.658;9.068;2023-07-29T02:24:52;15.40;99.90
15596;DHT22;7898;48.658;9.068;2023-07-29T02:27:19;15.30;99.90
15596;DHT22;7898;48.658;9.068;2023-07-29T02:29:46;15.40;99.90
15596;DHT22;7898;48.658;9.068;2023-07-29T02:32:14;15.30;99.90
15596;DHT22;7898;48.658;9.068;2023-07-29T02:34:41;15.30;99.90
15596;DHT22;7898;48.658;9.068;2023-07-29T02:37:08;15.40;99.90
15596;DHT22;7898;48.658;9.068;2023-07-29T02:39:35;15.40;99.90
15596;DHT22;7898;48.658;9.068;2023-07-29T02:42:02;15.40;99.90
15596;DHT22;7898;48.658;9.068;2023-07-29T02:44:29;15.40;99.90
15596;DHT22;7898;48.658;9.068;2023-07-29T02:46:56;15.40;99.90
15596;DHT22;7898;48.658;9.068;2023-07-29T02:49:24;15.40;99.90
15596;DHT22;7898;48.658;9.068;2023-07-29T02:51:51;15.50;99.90
15596;DHT22;7898;48.658;9.068;2023-07-29T02:54:18;15.50;99.90
15596;DHT22;7898;48.658;9.068;2023-07-29T02:56:44;15.50;99.90
15596;DHT22;7898;48.658;9.068;2023-07-29T02:59:11;15.40;99.90
15596;DHT22;7898;48.658;9.068;2023-07-29T03:01:38;15.40;99.90
15596;DHT22;7898;48.658;9.068;2023-07-29T03:04:05;15.40;99.90
15596;DHT22;7898;48.658;9.068;2023-07-29T03:06:33;15.50;99.90
15596;DHT22;7898;48.658;9.068;2023-07-29T03:09:00;15.50;99.90
15596;DHT22;7898;48.658;9.068;2023-07-29T03:11:27;15.50;99.90
15596;DHT22;7898;48.658;9.068;2023-07-29T03:13:54;15.50;99.90
15596;DHT22;7898;48.658;9.068;2023-07-29T03:16:21;15.50;99.90
15596;DHT22;7898;48.658;9.068;2023-07-29T03:18:48;15.50;99.90
15596;DHT22;7898;48.658;9.068;2023-07-29T03:21:15;15.60;99.90
15596;DHT22;7898;48.658;9.068;2023-07-29T03:23:43;15.60;99.90
15596;DHT22;7898;48.658;9.068;2023-07-29T03:26:10;15.50;99.90
15596;DHT22;7898;48.658;9.068;2023-07-29T03:28:39;15.50;99.90
15596;DHT22;7898;48.658;9.068;2023-07-29T03:31:06;15.50;99.90
15596;DHT22;7898;48.658;9.068;2023-07-29T03:33:33;15.40;99.90
15596;DHT22;7898;48.658;9.068;2023-07-29T03:36:00;15.40;99.90
15596;DHT22;7898;48.658;9.068;2023-07-29T03:38:27;15.40;99.90
15596;DHT22;7898;48.658;9.068;2023-07-29T03:40:56;15.40;99.90
15596;DHT22;7898;48.658;9.068;2023-07-29T03:43:23;15.40;99.90
15596;DHT22;7898;48.658;9.068;2023-07-29T03:45:50;15.40;99.90
15596;DHT22;7898;48.658;9.068;2023-07-29T03:48:17;15.40;99.90
15596;DHT22;7898;48.658;9.068;2023-07-29T03:50:44;15.50;99.90
15596;DHT22;7898;48.658;9.068;2023-07-29T03:53:11;15.50;99.90
15596;DHT22;7898;48.658;9.068;2023-07-29T03:55:37;15.50;99.90
15596;DHT22;7898;48.658;9.068;2023-07-29T03:58:06;15.50;99.90
15596;DHT22;7898;48.658;9.068;2023-07-29T04:00:33;15.60;99.90
15596;DHT22;7898;48.658;9.068;2023-07-29T04:02:59;15.60;99.90
15596;DHT22;7898;48.658;9.068;2023-07-29T04:05:26;15.60;99.90
15596;DHT22;7898;48.658;9.068;2023-07-29T04:07:54;15.60;99.90
15596;DHT22;7898;48.658;9.068;2023-07-29T04:10:21;15.70;99.90
15596;DHT22;7898;48.658;9.068;2023-07-29T04:12:48;15.70;99.90
15596;DHT22;7898;48.658;9.068;2023-07-29T04:15:16;15.70;99.90
15596;DHT22;7898;48.658;9.068;2023-07-29T04:17:43;15.70;99.90
15596;DHT22;7898;48.658;9.068;2023-07-29T04:20:11;15.70;99.90
15596;DHT22;7898;48.658;9.068;2023-07-29T04:22:38;15.70;99.90
15596;DHT22;7898;48.658;9.068;2023-07-29T04:25:05;15.70;99.90
15596;DHT22;7898;48.658;9.068;2023-07-29T04:27:33;15.70;99.90
15596;DHT22;7898;48.658;9.068;2023-07-29T04:29:59;15.80;99.90
15596;DHT22;7898;48.658;9.068;2023-07-29T04:32:28;15.80;99.90
15596;DHT22;7898;48.658;9.068;2023-07-29T04:34:54;15.90;99.90
15596;DHT22;7898;48.658;9.068;2023-07-29T04:37:21;16.00;99.90
15596;DHT22;7898;48.658;9.068;2023-07-29T04:39:48;16.00;99.90
15596;DHT22;7898;48.658;9.068;2023-07-29T04:42:15;16.10;99.90
15596;DHT22;7898;48.658;9.068;2023-07-29T04:44:42;16.10;99.90
15596;DHT22;7898;48.658;9.068;2023-07-29T04:47:10;16.10;99.90
15596;DHT22;7898;48.658;9.068;2023-07-29T04:49:38;16.20;99.90
15596;DHT22;7898;48.658;9.068;2023-07-29T04:52:05;16.20;99.90
15596;DHT22;7898;48.658;9.068;2023-07-29T04:54:32;16.20;99.90
15596;DHT22;7898;48.658;9.068;2023-07-29T04:56:59;16.20;99.90
15596;DHT22;7898;48.658;9.068;2023-07-29T04:59:26;16.20;99.90
15596;DHT22;7898;48.658;9.068;2023-07-29T05:01:53;16.20;99.90
15596;DHT22;7898;48.658;9.068;2023-07-29T05:04:20;16.20;99.90
15596;DHT22;7898;48.658;9.068;2023-07-29T05:06:48;16.20;99.90
15596;DHT22;7898;48.658;9.068;2023-07-29T05:09:18;16.30;99.90
15596;DHT22;7898;48.658;9.068;2023-07-29T05:11:45;16.40;99.90
15596;DHT22;7898;48.658;9.068;2023-07-29T05:14:13;16.40;99.90
15596;DHT22;7898;48.658;9.068;2023-07-29T05:16:40;16.40;99.90
15596;DHT22;7898;48.658;9.068;2023-07-29T05:19:07;16.50;99.90
15596;DHT22;7898;48.658;9.068;2023-07-29T05:21:34;16.50;99.90
15596;DHT22;7898;48.658;9.068;2023-07-29T05:24:02;16.50;99.90
15596;DHT22;7898;48.658;9.068;2023-07-29T05:26:29;16.60;99.90
15596;DHT22;7898;48.658;9.068;2023-07-29T05:28:56;16.60;99.90
15596;DHT22;7898;48.658;9.068;2023-07-29T05:31:23;16.70;99.90
15596;DHT22;7898;48.658;9.068;2023-07-29T05:33:50;16.70;99.90
15596;DHT22;7898;48.658;9.068;2023-07-29T05:36:16;16.80;99.90
15596;DHT22;7898;48.658;9.068;2023-07-29T05:38:43;16.90;99.90
15596;DHT22;7898;48.658;9.068;2023-07-29T05:41:11;17.00;99.90
15596;DHT22;7898;48.658;9.068;2023-07-29T05:43:38;17.00;99.90
15596;DHT22;7898;48.658;9.068;2023-07-29T05:46:05;17.10;99.90
15596;DHT22;7898;48.658;9.068;2023-07-29T05:48:32;17.10;99.90
15596;DHT22;7898;48.658;9.068;2023-07-29T05:50:59;17.20;99.90
15596;DHT22;7898;48.658;9.068;2023-07-29T05:53:26;17.30;99.90
15596;DHT22;7898;48.658;9.068;2023-07-29T05:55:53;17.40;99.90
15596;DHT22;7898;48.658;9.068;2023-07-29T05:58:21;17.40;99.90
15596;DHT22;7898;48.658;9.068;2023-07-29T06:00:48;17.50;99.90
15596;DHT22;7898;48.658;9.068;2023-07-29T06:03:15;17.50;99.90
15596;DHT22;7898;48.658;9.068;2023-07-29T06:05:42;17.60;99.90
15596;DHT22;7898;48.658;9.068;2023-07-29T06:08:08;17.70;99.90
15596;DHT22;7898;48.658;9.068;2023-07-29T06:10:36;17.90;99.90
15596;DHT22;7898;48.658;9.068;2023-07-29T06:13:03;18.00;99.90
15596;DHT22;7898;48.658;9.068;2023-07-29T06:15:31;18.30;99.90
15596;DHT22;7898;48.658;9.068;2023-07-29T06:17:58;18.40;99.90
15596;DHT22;7898;48.658;9.068;2023-07-29T06:20:25;18.50;99.90
15596;DHT22;7898;48.658;9.068;2023-07-29T06:22:52;18.50;99.90
15596;DHT22;7898;48.658;9.068;2023-07-29T06:25:19;18.50;99.90
15596;DHT22;7898;48.658;9.068;2023-07-29T06:27:45;18.60;99.90
15596;DHT22;7898;48.658;9.068;2023-07-29T06:30:12;18.60;99.90
15596;DHT22;7898;48.658;9.068;2023-07-29T06:32:40;18.60;99.90
15596;DHT22;7898;48.658;9.068;2023-07-29T06:35:08;18.60;99.90
15596;DHT22;7898;48.658;9.068;2023-07-29T06:37:34;18.60;99.90
15596;DHT22;7898;48.658;9.068;2023-07-29T06:40:01;18.60;99.90
15596;DHT22;7898;48.658;9.068;2023-07-29T06:42:28;18.50;99.90
15596;DHT22;7898;48.658;9.068;2023-07-29T06:44:55;18.50;99.90
15596;DHT22;7898;48.658;9.068;2023-07-29T06:47:22;18.40;99.90
15596;DHT22;7898;48.658;9.068;2023-07-29T06:49:50;18.30;99.90
15596;DHT22;7898;48.658;9.068;2023-07-29T06:52:17;18.20;99.90
15596;DHT22;7898;48.658;9.068;2023-07-29T06:54:44;18.10;99.90
15596;DHT22;7898;48.658;9.068;2023-07-29T06:57:11;18.00;99.90
15596;DHT22;7898;48.658;9.068;2023-07-29T06:59:38;18.00;99.90
15596;DHT22;7898;48.658;9.068;2023-07-29T07:02:06;17.90;99.90
15596;DHT22;7898;48.658;9.068;2023-07-29T07:04:33;17.90;99.90
15596;DHT22;7898;48.658;9.068;2023-07-29T07:07:01;17.80;99.90
15596;DHT22;7898;48.658;9.068;2023-07-29T07:09:28;17.80;99.90
15596;DHT22;7898;48.658;9.068;2023-07-29T07:11:55;17.70;99.90
15596;DHT22;7898;48.658;9.068;2023-07-29T07:14:22;17.70;99.90
15596;DHT22;7898;48.658;9.068;2023-07-29T07:16:48;17.70;99.90
15596;DHT22;7898;48.658;9.068;2023-07-29T07:19:15;17.60;99.90
15596;DHT22;7898;48.658;9.068;2023-07-29T07:21:42;17.60;99.90
15596;DHT22;7898;48.658;9.068;2023-07-29T07:24:10;17.60;99.90
15596;DHT22;7898;48.658;9.068;2023-07-29T07:26:37;17.60;99.90
15596;DHT22;7898;48.658;9.068;2023-07-29T07:29:04;17.60;99.90
15596;DHT22;7898;48.658;9.068;2023-07-29T07:31:33;17.70;99.90
15596;DHT22;7898;48.658;9.068;2023-07-29T07:34:00;17.70;99.90
15596;DHT22;7898;48.658;9.068;2023-07-29T07:36:28;17.80;99.90
15596;DHT22;7898;48.658;9.068;2023-07-29T07:38:55;17.90;99.90
15596;DHT22;7898;48.658;9.068;2023-07-29T07:41:23;17.90;99.90
15596;DHT22;7898;48.658;9.068;2023-07-29T07:43:50;18.00;99.90
15596;DHT22;7898;48.658;9.068;2023-07-29T07:46:17;18.00;99.90
15596;DHT22;7898;48.658;9.068;2023-07-29T07:48:44;18.10;99.90
15596;DHT22;7898;48.658;9.068;2023-07-29T07:51:11;18.10;99.90
15596;DHT22;7898;48.658;9.068;2023-07-29T07:53:38;18.20;99.90
15596;DHT22;7898;48.658;9.068;2023-07-29T07:56:05;18.30;99.90
15596;DHT22;7898;48.658;9.068;2023-07-29T07:58:34;18.30;99.90
15596;DHT22;7898;48.658;9.068;2023-07-29T08:01:02;18.40;99.90
15596;DHT22;7898;48.658;9.068;2023-07-29T08:03:29;18.50;99.90
15596;DHT22;7898;48.658;9.068;2023-07-29T08:05:56;18.60;99.90
15596;DHT22;7898;48.658;9.068;2023-07-29T08:08:23;18.70;99.90
15596;DHT22;7898;48.658;9.068;2023-07-29T08:10:49;18.80;99.90
15596;DHT22;7898;48.658;9.068;2023-07-29T08:13:16;18.90;99.90
15596;DHT22;7898;48.658;9.068;2023-07-29T08:15:47;19.10;99.90
15596;DHT22;7898;48.658;9.068;2023-07-29T08:18:14;19.10;99.90
15596;DHT22;7898;48.658;9.068;2023-07-29T08:20:41;19.20;99.90
15596;DHT22;7898;48.658;9.068;2023-07-29T08:23:08;19.30;99.90
15596;DHT22;7898;48.658;9.068;2023-07-29T08:25:35;19.50;99.90
15596;DHT22;7898;48.658;9.068;2023-07-29T08:28:02;19.50;99.90
15596;DHT22;7898;48.658;9.068;2023-07-29T08:30:28;19.60;99.90
15596;DHT22;7898;48.658;9.068;2023-07-29T08:32:57;19.70;99.90
15596;DHT22;7898;48.658;9.068;2023-07-29T08:35:23;19.90;99.90
15596;DHT22;7898;48.658;9.068;2023-07-29T08:37:50;20.10;99.90
15596;DHT22;7898;48.658;9.068;2023-07-29T08:40:17;20.20;99.90
15596;DHT22;7898;48.658;9.068;2023-07-29T08:42:45;20.40;99.90
15596;DHT22;7898;48.658;9.068;2023-07-29T08:45:14;20.50;99.90
15596;DHT22;7898;48.658;9.068;2023-07-29T08:47:43;20.60;99.90
15596;DHT22;7898;48.658;9.068;2023-07-29T08:50:12;20.80;99.90
15596;DHT22;7898;48.658;9.068;2023-07-29T08:52:40;20.80;99.90
15596;DHT22;7898;48.658;9.068;2023-07-29T08:55:08;20.90;99.90
15596;DHT22;7898;48.658;9.068;2023-07-29T08:57:35;21.20;99.90
15596;DHT22;7898;48.658;9.068;2023-07-29T09:00:02;21.30;99.90
15596;DHT22;7898;48.658;9.068;2023-07-29T09:02:30;21.40;99.90
15596;DHT22;7898;48.658;9.068;2023-07-29T09:04:56;21.50;99.90
15596;DHT22;7898;48.658;9.068;2023-07-29T09:07:25;21.50;99.90
15596;DHT22;7898;48.658;9.068;2023-07-29T09:09:52;21.60;99.90
15596;DHT22;7898;48.658;9.068;2023-07-29T09:12:19;21.50;99.90
15596;DHT22;7898;48.658;9.068;2023-07-29T09:14:46;21.60;99.90
15596;DHT22;7898;48.658;9.068;2023-07-29T09:17:14;21.70;99.90
15596;DHT22;7898;48.658;9.068;2023-07-29T09:19:41;21.80;99.90
15596;DHT22;7898;48.658;9.068;2023-07-29T09:22:17;22.00;99.90
15596;DHT22;7898;48.658;9.068;2023-07-29T09:24:46;22.10;99.90
15596;DHT22;7898;48.658;9.068;2023-07-29T09:27:23;22.40;99.90
15596;DHT22;7898;48.658;9.068;2023-07-29T09:29:50;22.60;99.90
15596;DHT22;7898;48.658;9.068;2023-07-29T09:32:18;22.60;99.90
15596;DHT22;7898;48.658;9.068;2023-07-29T09:34:45;22.60;99.90
15596;DHT22;7898;48.658;9.068;2023-07-29T09:37:16;22.60;99.90
15596;DHT22;7898;48.658;9.068;2023-07-29T09:39:45;22.70;99.90
15596;DHT22;7898;48.658;9.068;2023-07-29T09:42:17;22.80;99.90
15596;DHT22;7898;48.658;9.068;2023-07-29T09:44:45;22.90;99.90
15596;DHT22;7898;48.658;9.068;2023-07-29T09:47:20;22.70;99.90
15596;DHT22;7898;48.658;9.068;2023-07-29T09:49:47;23.00;99.90
15596;DHT22;7898;48.658;9.068;2023-07-29T09:52:15;23.00;99.90
15596;DHT22;7898;48.658;9.068;2023-07-29T09:54:44;22.90;99.90
15596;DHT22;7898;48.658;9.068;2023-07-29T09:57:11;22.90;99.90
15596;DHT22;7898;48.658;9.068;2023-07-29T09:59:40;23.00;99.90
15596;DHT22;7898;48.658;9.068;2023-07-29T10:02:10;23.10;99.90
15596;DHT22;7898;48.658;9.068;2023-07-29T10:04:41;23.30;99.90
15596;DHT22;7898;48.658;9.068;2023-07-29T10:07:09;23.40;99.90
15596;DHT22;7898;48.658;9.068;2023-07-29T10:09:37;23.40;99.90
15596;DHT22;7898;48.658;9.068;2023-07-29T10:12:07;23.50;99.90
15596;DHT22;7898;48.658;9.068;2023-07-29T10:14:34;23.30;99.90
15596;DHT22;7898;48.658;9.068;2023-07-29T10:17:02;23.20;99.90
15596;DHT22;7898;48.658;9.068;2023-07-29T10:19:29;23.20;99.90
15596;DHT22;7898;48.658;9.068;2023-07-29T10:21:59;23.20;99.90
15596;DHT22;7898;48.658;9.068;2023-07-29T10:24:30;23.30;99.90
15596;DHT22;7898;48.658;9.068;2023-07-29T10:26:59;23.50;99.90
15596;DHT22;7898;48.658;9.068;2023-07-29T10:29:30;23.70;99.90
15596;DHT22;7898;48.658;9.068;2023-07-29T10:32:01;23.70;99.90
15596;DHT22;7898;48.658;9.068;2023-07-29T10:34:30;23.90;99.90
15596;DHT22;7898;48.658;9.068;2023-07-29T10:36:57;23.90;99.90
15596;DHT22;7898;48.658;9.068;2023-07-29T10:39:25;24.00;99.90
15596;DHT22;7898;48.658;9.068;2023-07-29T10:41:56;24.10;99.90
15596;DHT22;7898;48.658;9.068;2023-07-29T10:44:47;24.30;99.90
15596;DHT22;7898;48.658;9.068;2023-07-29T10:47:17;24.20;99.90
15596;DHT22;7898;48.658;9.068;2023-07-29T10:49:45;24.40;99.90
15596;DHT22;7898;48.658;9.068;2023-07-29T10:52:13;24.50;99.90
15596;DHT22;7898;48.658;9.068;2023-07-29T10:54:44;24.50;99.90
15596;DHT22;7898;48.658;9.068;2023-07-29T10:57:15;24.60;99.90
15596;DHT22;7898;48.658;9.068;2023-07-29T10:59:54;24.70;99.90
15596;DHT22;7898;48.658;9.068;2023-07-29T11:02:28;24.80;99.90
15596;DHT22;7898;48.658;9.068;2023-07-29T11:04:55;24.80;99.90
15596;DHT22;7898;48.658;9.068;2023-07-29T11:07:24;24.80;99.90
15596;DHT22;7898;48.658;9.068;2023-07-29T11:09:59;24.80;99.90
15596;DHT22;7898;48.658;9.068;2023-07-29T11:12:43;24.70;99.90
15596;DHT22;7898;48.658;9.068;2023-07-29T11:15:21;24.80;99.90
15596;DHT22;7898;48.658;9.068;2023-07-29T11:17:50;24.80;99.90
15596;DHT22;7898;48.658;9.068;2023-07-29T11:20:18;24.80;99.90
15596;DHT22;7898;48.658;9.068;2023-07-29T11:22:46;24.80;99.90
15596;DHT22;7898;48.658;9.068;2023-07-29T11:25:14;24.80;99.90
15596;DHT22;7898;48.658;9.068;2023-07-29T11:27:42;24.90;99.90
15596;DHT22;7898;48.658;9.068;2023-07-29T11:30:10;25.00;99.90
15596;DHT22;7898;48.658;9.068;2023-07-29T11:32:39;25.10;99.90
15596;DHT22;7898;48.658;9.068;2023-07-29T11:35:08;25.20;99.90
15596;DHT22;7898;48.658;9.068;2023-07-29T11:37:35;25.20;99.90
15596;DHT22;7898;48.658;9.068;2023-07-29T11:40:03;25.20;99.90
15596;DHT22;7898;48.658;9.068;2023-07-29T11:42:32;25.40;99.90
15596;DHT22;7898;48.658;9.068;2023-07-29T11:44:59;25.30;99.90
15596;DHT22;7898;48.658;9.068;2023-07-29T11:47:27;25.30;99.90
15596;DHT22;7898;48.658;9.068;2023-07-29T11:49:58;25.30;99.90
15596;DHT22;7898;48.658;9.068;2023-07-29T11:52:26;25.20;99.90
15596;DHT22;7898;48.658;9.068;2023-07-29T11:54:53;25.10;99.90
15596;DHT22;7898;48.658;9.068;2023-07-29T11:57:20;25.00;99.90
15596;DHT22;7898;48.658;9.068;2023-07-29T11:59:47;24.90;99.90
15596;DHT22;7898;48.658;9.068;2023-07-29T12:02:16;24.90;99.90
15596;DHT22;7898;48.658;9.068;2023-07-29T12:04:45;24.90;99.90
15596;DHT22;7898;48.658;9.068;2023-07-29T12:07:16;25.00;99.90
15596;DHT22;7898;48.658;9.068;2023-07-29T12:09:43;25.00;99.90
15596;DHT22;7898;48.658;9.068;2023-07-29T12:12:11;25.00;99.90
15596;DHT22;7898;48.658;9.068;2023-07-29T12:14:38;25.00;99.90
15596;DHT22;7898;48.658;9.068;2023-07-29T12:17:06;25.00;99.90
15596;DHT22;7898;48.658;9.068;2023-07-29T12:19:34;25.10;99.90
15596;DHT22;7898;48.658;9.068;2023-07-29T12:22:01;25.10;99.90
15596;DHT22;7898;48.658;9.068;2023-07-29T12:24:31;25.00;99.90
15596;DHT22;7898;48.658;9.068;2023-07-29T12:26:59;24.90;99.90
15596;DHT22;7898;48.658;9.068;2023-07-29T12:29:26;24.80;99.90
15596;DHT22;7898;48.658;9.068;2023-07-29T12:31:58;24.90;99.90
15596;DHT22;7898;48.658;9.068;2023-07-29T12:34:26;25.10;99.90
15596;DHT22;7898;48.658;9.068;2023-07-29T12:36:54;25.30;99.90
15596;DHT22;7898;48.658;9.068;2023-07-29T12:39:23;25.40;99.90
15596;DHT22;7898;48.658;9.068;2023-07-29T12:41:53;25.60;99.90
15596;DHT22;7898;48.658;9.068;2023-07-29T12:44:20;25.60;99.90
15596;DHT22;7898;48.658;9.068;2023-07-29T12:46:49;25.60;99.90
15596;DHT22;7898;48.658;9.068;2023-07-29T12:49:16;25.50;99.90
15596;DHT22;7898;48.658;9.068;2023-07-29T12:51:43;25.40;99.90
15596;DHT22;7898;48.658;9.068;2023-07-29T12:54:10;25.30;99.90
15596;DHT22;7898;48.658;9.068;2023-07-29T12:56:37;25.30;99.90
15596;DHT22;7898;48.658;9.068;2023-07-29T12:59:05;25.20;99.90
15596;DHT22;7898;48.658;9.068;2023-07-29T13:01:32;25.30;99.90
15596;DHT22;7898;48.658;9.068;2023-07-29T13:03:59;25.30;99.90
15596;DHT22;7898;48.658;9.068;2023-07-29T13:06:26;25.30;99.90
15596;DHT22;7898;48.658;9.068;2023-07-29T13:08:53;25.30;99.90
15596;DHT22;7898;48.658;9.068;2023-07-29T13:11:19;25.20;99.90
15596;DHT22;7898;48.658;9.068;2023-07-29T13:13:46;25.40;99.90
15596;DHT22;7898;48.658;9.068;2023-07-29T13:16:15;25.30;99.90
15596;DHT22;7898;48.658;9.068;2023-07-29T13:18:43;25.20;99.90
15596;DHT22;7898;48.658;9.068;2023-07-29T13:21:10;25.20;99.90
15596;DHT22;7898;48.658;9.068;2023-07-29T13:23:37;25.20;99.90
15596;DHT22;7898;48.658;9.068;2023-07-29T13:26:04;25.20;99.90
15596;DHT22;7898;48.658;9.068;2023-07-29T13:28:30;25.30;99.90
15596;DHT22;7898;48.658;9.068;2023-07-29T13:30:57;25.40;99.90
15596;DHT22;7898;48.658;9.068;2023-07-29T13:33:25;25.50;99.90
15596;DHT22;7898;48.658;9.068;2023-07-29T13:35:52;25.50;99.90
15596;DHT22;7898;48.658;9.068;2023-07-29T13:38:19;25.50;99.90
15596;DHT22;7898;48.658;9.068;2023-07-29T13:40:46;25.60;99.90
15596;DHT22;7898;48.658;9.068;2023-07-29T13:43:16;25.70;99.90
15596;DHT22;7898;48.658;9.068;2023-07-29T13:45:43;25.80;99.90
15596;DHT22;7898;48.658;9.068;2023-07-29T13:48:10;25.80;99.90
15596;DHT22;7898;48.658;9.068;2023-07-29T13:50:38;25.80;99.90
15596;DHT22;7898;48.658;9.068;2023-07-29T13:53:05;25.80;99.90
15596;DHT22;7898;48.658;9.068;2023-07-29T13:55:32;25.90;99.90
15596;DHT22;7898;48.658;9.068;2023-07-29T13:57:58;25.90;99.90
15596;DHT22;7898;48.658;9.068;2023-07-29T14:00:26;25.70;99.90
15596;DHT22;7898;48.658;9.068;2023-07-29T14:02:52;25.70;99.90
15596;DHT22;7898;48.658;9.068;2023-07-29T14:05:19;25.50;99.90
15596;DHT22;7898;48.658;9.068;2023-07-29T14:07:48;25.40;99.90
15596;DHT22;7898;48.658;9.068;2023-07-29T14:10:15;25.30;99.90
15596;DHT22;7898;48.658;9.068;2023-07-29T14:12:42;25.20;99.90
15596;DHT22;7898;48.658;9.068;2023-07-29T14:15:09;25.20;99.90
15596;DHT22;7898;48.658;9.068;2023-07-29T14:17:35;25.20;99.90
15596;DHT22;7898;48.658;9.068;2023-07-29T14:20:03;25.20;99.90
15596;DHT22;7898;48.658;9.068;2023-07-29T14:22:30;25.10;99.90
15596;DHT22;7898;48.658;9.068;2023-07-29T14:24:58;25.00;99.90
15596;DHT22;7898;48.658;9.068;2023-07-29T14:27:25;25.00;99.90
15596;DHT22;7898;48.658;9.068;2023-07-29T14:29:52;25.20;99.90
15596;DHT22;7898;48.658;9.068;2023-07-29T14:32:19;25.30;99.90
15596;DHT22;7898;48.658;9.068;2023-07-29T14:34:46;25.40;99.90
15596;DHT22;7898;48.658;9.068;2023-07-29T14:37:12;25.30;99.90
15596;DHT22;7898;48.658;9.068;2023-07-29T14:39:39;25.30;99.90
15596;DHT22;7898;48.658;9.068;2023-07-29T14:42:07;25.20;99.90
15596;DHT22;7898;48.658;9.068;2023-07-29T14:44:34;25.10;99.90
15596;DHT22;7898;48.658;9.068;2023-07-29T14:47:01;25.00;99.90
15596;DHT22;7898;48.658;9.068;2023-07-29T14:49:28;24.90;99.90
15596;DHT22;7898;48.658;9.068;2023-07-29T14:51:55;24.80;99.90
15596;DHT22;7898;48.658;9.068;2023-07-29T14:54:22;24.90;99.90
15596;DHT22;7898;48.658;9.068;2023-07-29T14:56:49;24.90;99.90
15596;DHT22;7898;48.658;9.068;2023-07-29T14:59:17;25.00;99.90
15596;DHT22;7898;48.658;9.068;2023-07-29T15:01:44;25.00;99.90
15596;DHT22;7898;48.658;9.068;2023-07-29T15:04:11;25.10;99.90
15596;DHT22;7898;48.658;9.068;2023-07-29T15:06:37;25.00;99.90
15596;DHT22;7898;48.658;9.068;2023-07-29T15:09:05;24.90;99.90
15596;DHT22;7898;48.658;9.068;2023-07-29T15:11:32;24.80;99.90
15596;DHT22;7898;48.658;9.068;2023-07-29T15:13:59;24.60;99.90
15596;DHT22;7898;48.658;9.068;2023-07-29T15:16:27;24.60;99.90
15596;DHT22;7898;48.658;9.068;2023-07-29T15:18:54;24.60;99.90
15596;DHT22;7898;48.658;9.068;2023-07-29T15:21:21;24.60;99.90
15596;DHT22;7898;48.658;9.068;2023-07-29T15:23:48;24.70;99.90
15596;DHT22;7898;48.658;9.068;2023-07-29T15:26:15;24.70;99.90
15596;DHT22;7898;48.658;9.068;2023-07-29T15:28:41;24.60;99.90
15596;DHT22;7898;48.658;9.068;2023-07-29T15:31:08;24.60;99.90
15596;DHT22;7898;48.658;9.068;2023-07-29T15:33:37;24.50;99.90
15596;DHT22;7898;48.658;9.068;2023-07-29T15:36:04;24.80;99.90
15596;DHT22;7898;48.658;9.068;2023-07-29T15:38:31;25.00;99.90
15596;DHT22;7898;48.658;9.068;2023-07-29T15:40:59;25.30;99.90
15596;DHT22;7898;48.658;9.068;2023-07-29T15:43:26;25.50;99.90
15596;DHT22;7898;48.658;9.068;2023-07-29T15:45:53;25.60;99.90
15596;DHT22;7898;48.658;9.068;2023-07-29T15:48:19;25.60;99.90